createdAt,value
2023-03-23T00:00:28.438Z,65.61
2023-03-23T00:02:28.750Z,65.71
2023-03-23T00:04:29.078Z,65.71
2023-03-23T00:06:30.305Z,65.61
2023-03-23T00:08:30.589Z,65.81
2023-03-23T00:10:30.926Z,65.61
2023-03-23T00:12:31.231Z,65.51
2023-03-23T00:14:36.416Z,65.71
2023-03-23T00:16:36.675Z,65.84
2023-03-23T00:18:37.060Z,66.05
2023-03-23T00:20:37.374Z,66.25
2023-03-23T00:22:37.880Z,66.25
2023-03-23T00:24:38.219Z,66.46
2023-03-23T00:26:48.122Z,66.55
2023-03-23T00:28:43.758Z,66.76
2023-03-23T00:30:44.019Z,66.96
2023-03-23T00:32:44.340Z,67.19
2023-03-23T00:34:44.675Z,66.69
2023-03-23T00:36:44.914Z,66.58
2023-03-23T00:38:45.264Z,66.69
2023-03-23T00:40:45.637Z,66.58
2023-03-23T00:42:46.136Z,66.58
2023-03-23T00:44:46.392Z,66.69
2023-03-23T00:46:46.771Z,66.69
2023-03-23T00:48:47.176Z,66.79
2023-03-23T00:50:47.555Z,67.19
2023-03-23T00:52:47.950Z,67.30
2023-03-23T00:54:48.789Z,67.71
2023-03-23T00:56:49.064Z,67.80
2023-03-23T00:58:49.531Z,67.91
2023-03-23T01:00:49.840Z,68.01
2023-03-23T01:02:50.160Z,67.83
2023-03-23T01:04:50.466Z,67.83
2023-03-23T01:06:50.764Z,67.74
2023-03-23T01:08:51.774Z,67.63
2023-03-23T01:10:52.038Z,67.74
2023-03-23T01:12:52.345Z,67.74
2023-03-23T01:14:52.703Z,68.04
2023-03-23T01:16:52.961Z,68.24
2023-03-23T01:18:53.781Z,68.55
2023-03-23T01:20:54.244Z,68.65
2023-03-23T01:22:54.556Z,68.35
2023-03-23T01:24:55.021Z,68.38
2023-03-23T01:26:55.347Z,68.44
2023-03-23T01:28:55.654Z,68.07
2023-03-23T01:30:55.988Z,68.04
2023-03-23T01:32:56.403Z,68.04
2023-03-23T01:34:56.909Z,67.74
2023-03-23T01:36:57.215Z,67.83
2023-03-23T01:38:57.808Z,67.53
2023-03-23T01:40:58.140Z,67.74
2023-03-23T01:42:58.636Z,67.63
2023-03-23T01:44:58.874Z,67.83
2023-03-23T01:47:04.115Z,68.04
2023-03-23T01:49:04.678Z,67.94
2023-03-23T01:51:05.229Z,68.04
2023-03-23T01:53:05.570Z,68.27
2023-03-23T01:55:05.842Z,68.55
2023-03-23T01:57:06.129Z,68.27
2023-03-23T01:59:06.743Z,68.38
2023-03-23T02:01:07.052Z,68.27
2023-03-23T02:03:07.362Z,68.07
2023-03-23T02:05:12.538Z,68.58
2023-03-23T02:07:12.935Z,68.68
2023-03-23T02:09:13.164Z,68.18
2023-03-23T02:11:22.001Z,68.58
2023-03-23T02:13:18.663Z,68.38
2023-03-23T02:15:18.997Z,67.97
2023-03-23T02:17:19.294Z,68.07
2023-03-23T02:19:19.634Z,67.87
2023-03-23T02:21:19.909Z,67.66
2023-03-23T02:23:20.521Z,67.77
2023-03-23T02:25:20.903Z,67.57
2023-03-23T02:27:21.213Z,67.46
2023-03-23T02:29:21.533Z,67.46
2023-03-23T02:31:21.804Z,67.36
2023-03-23T02:33:22.395Z,67.36
2023-03-23T02:35:22.699Z,67.46
2023-03-23T02:37:23.051Z,67.05
2023-03-23T02:39:23.342Z,67.26
2023-03-23T02:41:23.673Z,67.26
2023-03-23T02:43:24.015Z,67.22
2023-03-23T02:45:29.802Z,67.46
2023-03-23T02:47:30.076Z,67.77
2023-03-23T02:49:30.377Z,67.46
2023-03-23T02:51:30.717Z,67.46
2023-03-23T02:53:35.924Z,67.66
2023-03-23T02:55:36.198Z,67.63
2023-03-23T02:57:40.301Z,67.77
2023-03-23T02:59:40.956Z,67.97
2023-03-23T03:01:41.406Z,67.66
2023-03-23T03:03:42.102Z,67.57
2023-03-23T03:05:42.626Z,67.87
2023-03-23T03:07:43.239Z,67.97
2023-03-23T03:09:43.626Z,67.66
2023-03-23T03:11:43.965Z,67.97
2023-03-23T03:13:44.283Z,68.27
2023-03-23T03:15:44.574Z,67.77
2023-03-23T03:17:44.880Z,67.97
2023-03-23T03:19:45.154Z,67.97
2023-03-23T03:21:45.460Z,68.18
2023-03-23T03:23:46.578Z,67.87
2023-03-23T03:25:46.885Z,67.97
2023-03-23T03:27:47.169Z,68.27
2023-03-23T03:29:47.504Z,68.79
2023-03-23T03:31:47.872Z,68.38
2023-03-23T03:33:48.168Z,68.58
2023-03-23T03:35:48.562Z,68.79
2023-03-23T03:37:48.823Z,68.68
2023-03-23T03:39:49.130Z,68.88
2023-03-23T03:41:49.404Z,68.88
2023-03-23T03:43:49.692Z,68.88
2023-03-23T03:45:50.033Z,69.40
2023-03-23T03:47:50.313Z,69.09
2023-03-23T03:49:50.925Z,68.99
2023-03-23T03:51:51.265Z,69.23
2023-03-23T03:53:51.902Z,69.19
2023-03-23T03:55:52.358Z,68.99
2023-03-23T03:57:52.798Z,68.99
2023-03-23T03:59:53.135Z,69.19
2023-03-23T04:01:54.880Z,69.29
2023-03-23T04:03:55.321Z,68.79
2023-03-23T04:05:58.225Z,68.07
2023-03-23T04:07:58.829Z,67.74
2023-03-23T04:10:04.002Z,67.53
2023-03-23T04:12:04.361Z,67.19
2023-03-23T04:14:05.216Z,66.69
2023-03-23T04:16:10.119Z,66.25
2023-03-23T04:18:10.729Z,65.74
2023-03-23T04:20:10.996Z,65.64
2023-03-23T04:22:11.658Z,65.51
2023-03-23T04:24:23.443Z,65.00
2023-03-23T04:26:17.620Z,65.61
2023-03-23T04:28:18.734Z,66.02
2023-03-23T04:30:19.138Z,67.33
2023-03-23T04:32:19.427Z,67.84
2023-03-23T04:34:20.032Z,67.64
2023-03-23T04:36:20.374Z,68.25
2023-03-23T04:38:20.725Z,67.77
2023-03-23T04:40:21.043Z,68.66
2023-03-23T04:42:21.385Z,68.28
2023-03-23T04:44:21.970Z,68.79
2023-03-23T04:46:22.302Z,69.91
2023-03-23T04:48:22.638Z,69.40
2023-03-23T04:50:22.892Z,70.31
2023-03-23T04:52:23.208Z,71.53
2023-03-23T04:54:23.522Z,72.08
2023-03-23T04:56:23.884Z,74.01
2023-03-23T04:58:24.157Z,74.31
2023-03-23T05:00:24.624Z,77.29
2023-03-23T05:02:24.882Z,75.67
2023-03-23T05:04:29.653Z,75.20
2023-03-23T05:06:30.003Z,76.42
2023-03-23T05:08:30.423Z,75.60
2023-03-23T05:10:31.349Z,76.62
2023-03-23T05:12:31.718Z,75.50
2023-03-23T05:14:31.968Z,76.11
2023-03-23T05:16:37.200Z,75.81
2023-03-23T05:18:37.511Z,74.79
2023-03-23T05:20:37.796Z,74.69
2023-03-23T05:22:38.081Z,74.69
2023-03-23T05:24:38.368Z,73.63
2023-03-23T05:26:38.670Z,73.54
2023-03-23T05:28:38.959Z,73.43
2023-03-23T05:30:39.360Z,73.23
2023-03-23T05:32:39.655Z,72.72
2023-03-23T05:34:39.987Z,72.72
2023-03-23T05:36:40.257Z,72.82
2023-03-23T05:38:40.578Z,73.23
2023-03-23T05:40:40.892Z,72.31
2023-03-23T05:42:41.172Z,72.31
2023-03-23T05:44:41.519Z,72.11
2023-03-23T05:46:41.827Z,71.30
2023-03-23T05:48:42.165Z,71.47
2023-03-23T05:50:42.425Z,70.96
2023-03-23T05:52:42.729Z,71.67
2023-03-23T05:54:43.045Z,71.16
2023-03-23T05:56:43.315Z,71.26
2023-03-23T05:58:43.620Z,71.47
2023-03-23T06:00:43.950Z,71.26
2023-03-23T06:02:44.222Z,71.16
2023-03-23T06:04:44.658Z,71.16
2023-03-23T06:06:44.920Z,71.26
2023-03-23T06:08:45.296Z,70.86
2023-03-23T06:10:45.592Z,71.06
2023-03-23T06:12:45.897Z,70.14
2023-03-23T06:14:46.219Z,70.45
2023-03-23T06:16:46.734Z,70.11
2023-03-23T06:18:47.049Z,69.81
2023-03-23T06:20:48.054Z,70.82
2023-03-23T06:22:48.388Z,70.52
2023-03-23T06:24:48.678Z,71.33
2023-03-23T06:26:48.963Z,70.01
2023-03-23T06:28:49.228Z,70.01
2023-03-23T06:30:49.553Z,70.21
2023-03-23T06:32:49.849Z,70.42
2023-03-23T06:34:50.134Z,70.11
2023-03-23T06:36:50.501Z,70.92
2023-03-23T06:38:50.732Z,71.23
2023-03-23T06:40:51.463Z,70.82
2023-03-23T06:42:51.777Z,69.91
2023-03-23T06:44:52.187Z,69.70
2023-03-23T06:46:52.434Z,70.01
2023-03-23T06:48:52.743Z,69.91
2023-03-23T06:50:53.072Z,69.91
2023-03-23T06:52:53.372Z,69.50
2023-03-23T06:54:53.657Z,69.30
2023-03-23T06:56:53.976Z,69.78
2023-03-23T06:58:54.254Z,69.47
2023-03-23T07:00:54.564Z,69.26
2023-03-23T07:02:54.843Z,69.37
2023-03-23T07:04:55.100Z,68.96
2023-03-23T07:07:00.312Z,68.86
2023-03-23T07:09:00.636Z,69.37
2023-03-23T07:11:00.910Z,69.06
2023-03-23T07:13:01.201Z,68.86
2023-03-23T07:15:01.498Z,69.03
2023-03-23T07:17:01.800Z,69.23
2023-03-23T07:19:02.202Z,69.34
2023-03-23T07:21:02.696Z,69.13
2023-03-23T07:23:03.067Z,69.23
2023-03-23T07:25:03.427Z,69.74
2023-03-23T07:27:03.710Z,69.95
2023-03-23T07:29:04.889Z,69.84
2023-03-23T07:31:05.173Z,69.84
2023-03-23T07:33:05.500Z,70.65
2023-03-23T07:35:07.315Z,70.45
2023-03-23T07:37:07.833Z,70.35
2023-03-23T07:39:08.115Z,70.96
2023-03-23T07:41:08.420Z,70.86
2023-03-23T07:43:08.714Z,71.16
2023-03-23T07:45:10.062Z,71.70
2023-03-23T07:47:10.314Z,71.91
2023-03-23T07:49:10.638Z,72.21
2023-03-23T07:51:11.026Z,72.41
2023-03-23T07:53:11.272Z,72.41
2023-03-23T07:55:11.554Z,72.82
2023-03-23T07:57:11.877Z,72.75
2023-03-23T07:59:12.235Z,73.06
2023-03-23T08:01:12.482Z,73.36
2023-03-23T08:03:12.774Z,73.77
2023-03-23T08:05:13.118Z,73.57
2023-03-23T08:07:13.417Z,73.87
2023-03-23T08:09:18.594Z,73.77
2023-03-23T08:11:18.879Z,73.67
2023-03-23T08:13:19.325Z,74.07
2023-03-23T08:15:19.788Z,73.87
2023-03-23T08:17:20.078Z,73.97
2023-03-23T08:19:20.336Z,73.97
2023-03-23T08:21:20.675Z,73.67
2023-03-23T08:23:21.000Z,73.87
2023-03-23T08:25:21.323Z,74.07
2023-03-23T08:27:21.607Z,74.18
2023-03-23T08:29:21.912Z,73.87
2023-03-23T08:31:22.194Z,73.97
2023-03-23T08:33:22.476Z,73.87
2023-03-23T08:35:22.794Z,74.34
2023-03-23T08:37:23.073Z,74.34
2023-03-23T08:39:23.442Z,74.44
2023-03-23T08:41:23.742Z,74.48
2023-03-23T08:43:24.058Z,74.58
2023-03-23T08:45:24.410Z,74.88
2023-03-23T08:47:24.755Z,74.99
2023-03-23T08:49:25.032Z,75.87
2023-03-23T08:51:25.955Z,76.01
2023-03-23T08:53:26.268Z,77.12
2023-03-23T08:55:26.553Z,77.33
2023-03-23T08:57:26.928Z,77.94
2023-03-23T08:59:27.248Z,79.80
2023-03-23T09:01:27.522Z,80.92
2023-03-23T09:03:27.803Z,80.00
2023-03-23T09:05:28.122Z,80.72
2023-03-23T09:07:28.446Z,79.60
2023-03-23T09:09:28.739Z,78.58
2023-03-23T09:11:29.037Z,79.46
2023-03-23T09:13:29.343Z,77.02
2023-03-23T09:15:34.121Z,77.02
2023-03-23T09:17:34.875Z,76.31
2023-03-23T09:19:35.161Z,76.37
2023-03-23T09:21:35.446Z,76.07
2023-03-23T09:23:35.760Z,75.67
2023-03-23T09:25:36.928Z,75.26
2023-03-23T09:27:37.926Z,75.73
2023-03-23T09:29:38.203Z,74.01
2023-03-23T09:31:38.514Z,73.46
2023-03-23T09:33:38.827Z,72.75
2023-03-23T09:35:44.358Z,72.25
2023-03-23T09:37:44.810Z,71.60
2023-03-23T09:39:45.158Z,71.20
2023-03-23T09:41:45.401Z,71.67
2023-03-23T09:43:45.690Z,70.56
2023-03-23T09:45:46.009Z,70.56
2023-03-23T09:47:46.295Z,70.79
2023-03-23T09:49:46.611Z,70.69
2023-03-23T09:51:46.877Z,71.70
2023-03-23T09:53:47.165Z,70.89
2023-03-23T09:55:47.474Z,71.57
2023-03-23T09:57:47.805Z,70.96
2023-03-23T09:59:48.111Z,70.45
2023-03-23T10:01:48.510Z,70.56
2023-03-23T10:03:48.787Z,70.65
2023-03-23T10:05:49.119Z,71.06
2023-03-23T10:07:49.425Z,70.65
2023-03-23T10:09:49.748Z,71.09
2023-03-23T10:11:50.028Z,71.91
2023-03-23T10:13:50.303Z,72.11
2023-03-23T10:15:50.629Z,72.11
2023-03-23T10:17:50.952Z,72.21
2023-03-23T10:19:51.271Z,72.55
2023-03-23T10:21:51.553Z,72.75
2023-03-23T10:23:51.849Z,73.26
2023-03-23T10:25:52.154Z,73.02
2023-03-23T10:27:52.507Z,72.52
2023-03-23T10:29:52.796Z,72.28
2023-03-23T10:31:53.105Z,71.88
2023-03-23T10:33:53.362Z,71.64
2023-03-23T10:35:53.728Z,70.69
2023-03-23T10:37:54.948Z,69.74
2023-03-23T10:39:55.218Z,69.54
2023-03-23T10:41:55.549Z,69.10
2023-03-23T10:43:55.835Z,68.50
2023-03-23T10:46:00.603Z,68.40
2023-03-23T10:48:01.293Z,66.98
2023-03-23T10:50:01.557Z,66.95
2023-03-23T10:52:01.824Z,66.64
2023-03-23T10:54:02.181Z,66.24
2023-03-23T10:56:02.425Z,66.55
2023-03-23T10:58:02.791Z,66.55
2023-03-23T11:00:03.085Z,68.19
2023-03-23T11:02:03.438Z,68.16
2023-03-23T11:04:03.794Z,67.86
2023-03-23T11:06:04.059Z,68.16
2023-03-23T11:08:04.370Z,69.27
2023-03-23T11:10:04.732Z,69.21
2023-03-23T11:12:05.241Z,70.02
2023-03-23T11:14:05.521Z,70.25
2023-03-23T11:16:05.830Z,70.36
2023-03-23T11:18:06.131Z,71.06
2023-03-23T11:20:06.431Z,71.50
2023-03-23T11:22:11.613Z,71.91
2023-03-23T11:24:11.909Z,72.45
2023-03-23T11:26:12.196Z,72.85
2023-03-23T11:28:12.501Z,73.49
2023-03-23T11:30:13.463Z,73.90
2023-03-23T11:32:13.774Z,74.30
2023-03-23T11:34:14.074Z,74.51
2023-03-23T11:36:14.361Z,74.81
2023-03-23T11:38:14.693Z,74.54
2023-03-23T11:40:15.002Z,74.95
2023-03-23T11:42:15.315Z,74.54
2023-03-23T11:44:15.606Z,74.61
2023-03-23T11:46:15.905Z,74.41
2023-03-23T11:48:16.255Z,74.51
2023-03-23T11:50:16.654Z,74.30
2023-03-23T11:52:16.926Z,74.10
2023-03-23T11:54:20.558Z,74.00
2023-03-23T11:56:20.845Z,74.00
2023-03-23T11:58:21.132Z,74.21
2023-03-23T12:00:21.390Z,74.95
2023-03-23T12:02:21.706Z,75.66
2023-03-23T12:04:21.990Z,75.76
2023-03-23T12:06:22.411Z,75.66
2023-03-23T12:08:22.736Z,75.66
2023-03-23T12:10:30.705Z,75.66
2023-03-23T12:12:28.203Z,75.56
2023-03-23T12:14:58.942Z,75.66
2023-03-23T12:16:34.543Z,76.06
2023-03-23T12:18:34.827Z,75.05
2023-03-23T12:20:41.258Z,74.54
2023-03-23T12:22:40.316Z,73.93
2023-03-23T12:24:40.615Z,73.53
2023-03-23T12:26:40.934Z,73.53
2023-03-23T12:28:41.278Z,73.22
2023-03-23T12:30:41.556Z,73.63
2023-03-23T12:32:41.839Z,73.33
2023-03-23T12:34:42.172Z,73.02
2023-03-23T12:36:42.464Z,73.02
2023-03-23T12:38:42.730Z,73.22
2023-03-23T12:40:46.601Z,73.12
2023-03-23T12:42:47.079Z,73.49
2023-03-23T12:44:47.375Z,72.99
2023-03-23T12:46:49.610Z,72.89
2023-03-23T12:48:50.791Z,73.09
2023-03-23T12:50:51.126Z,73.29
2023-03-23T12:52:51.416Z,73.63
2023-03-23T12:54:51.768Z,73.93
2023-03-23T12:56:52.328Z,74.34
2023-03-23T12:58:53.689Z,74.65
2023-03-23T13:00:54.046Z,73.46
2023-03-23T13:02:54.378Z,72.72
2023-03-23T13:04:54.748Z,72.72
2023-03-23T13:06:55.109Z,72.52
2023-03-23T13:08:56.157Z,72.41
2023-03-23T13:10:56.545Z,72.52
2023-03-23T13:12:57.292Z,72.45
2023-03-23T13:14:57.594Z,72.85
2023-03-23T13:16:57.888Z,73.16
2023-03-23T13:18:58.242Z,73.05
2023-03-23T13:20:58.807Z,73.29
2023-03-23T13:22:59.128Z,73.60
2023-03-23T13:24:59.447Z,73.29
2023-03-23T13:26:59.754Z,73.29
2023-03-23T13:29:00.052Z,73.29
2023-03-23T13:31:00.387Z,73.29
2023-03-23T13:33:01.268Z,73.29
2023-03-23T13:35:01.650Z,73.29
2023-03-23T13:37:01.932Z,73.39
2023-03-23T13:39:02.231Z,73.29
2023-03-23T13:41:02.541Z,73.39
2023-03-23T13:43:03.053Z,73.39
2023-03-23T13:45:03.383Z,73.93
2023-03-23T13:47:03.624Z,73.53
2023-03-23T13:49:08.062Z,74.04
2023-03-23T13:51:09.434Z,74.14
2023-03-23T13:53:09.971Z,74.14
2023-03-23T13:55:10.241Z,73.93
2023-03-23T13:57:10.544Z,74.14
2023-03-23T13:59:11.173Z,74.14
2023-03-23T14:01:11.619Z,74.24
2023-03-23T14:03:11.995Z,74.24
2023-03-23T14:05:12.242Z,74.24
2023-03-23T14:07:12.620Z,73.93
2023-03-23T14:09:12.915Z,74.04
2023-03-23T14:11:13.349Z,73.93
2023-03-23T14:13:13.701Z,73.93
2023-03-23T14:15:13.960Z,73.73
2023-03-23T14:17:14.264Z,73.63
2023-03-23T14:19:14.695Z,73.93
2023-03-23T14:21:15.200Z,73.63
2023-03-23T14:23:15.567Z,73.33
2023-03-23T14:25:15.910Z,73.53
2023-03-23T14:27:16.188Z,73.39
2023-03-23T14:29:16.548Z,73.39
2023-03-23T14:31:17.568Z,73.29
2023-03-23T14:33:17.888Z,73.09
2023-03-23T14:35:18.159Z,74.07
2023-03-23T14:37:18.458Z,74.37
2023-03-23T14:39:18.807Z,74.17
2023-03-23T14:41:19.145Z,73.76
2023-03-23T14:43:24.276Z,74.07
2023-03-23T14:45:24.601Z,73.86
2023-03-23T14:47:24.906Z,73.16
2023-03-23T14:49:25.255Z,73.36
2023-03-23T14:51:25.602Z,72.96
2023-03-23T14:53:25.884Z,72.34
2023-03-23T14:55:26.207Z,72.45
2023-03-23T14:57:26.489Z,72.34
2023-03-23T14:59:26.814Z,72.45
2023-03-23T15:01:27.100Z,72.34
2023-03-23T15:03:27.418Z,72.45
2023-03-23T15:05:27.724Z,72.38
2023-03-23T15:07:27.997Z,72.75
2023-03-23T15:09:28.312Z,72.75
2023-03-23T15:11:28.647Z,72.85
2023-03-23T15:13:29.088Z,73.16
2023-03-23T15:15:29.410Z,72.96
2023-03-23T15:17:29.722Z,72.85
2023-03-23T15:19:29.973Z,72.96
2023-03-23T15:21:30.303Z,73.46
2023-03-23T15:23:30.689Z,72.45
2023-03-23T15:25:30.956Z,72.75
2023-03-23T15:27:33.429Z,72.75
2023-03-23T15:29:34.274Z,72.45
2023-03-23T15:31:34.928Z,72.65
2023-03-23T15:33:35.239Z,72.75
2023-03-23T15:35:35.506Z,71.94
2023-03-23T15:37:35.919Z,72.04
2023-03-23T15:39:36.217Z,71.64
2023-03-23T15:41:36.519Z,71.64
2023-03-23T15:43:37.133Z,71.91
2023-03-23T15:45:37.375Z,71.20
2023-03-23T15:47:38.835Z,71.09
2023-03-23T15:49:40.149Z,70.59
2023-03-23T15:51:40.587Z,71.20
2023-03-23T15:53:40.859Z,71.00
2023-03-23T15:55:41.198Z,71.09
2023-03-23T15:58:03.447Z,71.30
2023-03-23T16:00:03.777Z,71.50
2023-03-23T16:02:04.189Z,71.60
2023-03-23T16:04:04.512Z,72.01
2023-03-23T16:06:04.810Z,71.91
2023-03-23T16:08:05.088Z,72.41
2023-03-23T16:10:05.398Z,72.72
2023-03-23T16:12:05.742Z,72.96
2023-03-23T16:14:06.032Z,73.36
2023-03-23T16:16:06.286Z,73.76
2023-03-23T16:18:06.636Z,74.27
2023-03-23T16:20:07.013Z,74.77
2023-03-23T16:22:07.306Z,75.08
2023-03-23T16:24:07.588Z,75.42
2023-03-23T16:26:07.892Z,75.73
2023-03-23T16:28:08.201Z,76.03
2023-03-23T16:30:08.527Z,76.33
2023-03-23T16:32:08.846Z,76.64
2023-03-23T16:34:09.620Z,76.94
2023-03-23T16:36:09.933Z,76.98
2023-03-23T16:38:10.189Z,77.18
2023-03-23T16:40:10.477Z,77.48
2023-03-23T16:43:39.958Z,77.69
2023-03-23T16:45:42.413Z,77.79
2023-03-23T16:47:44.249Z,78.30
2023-03-23T16:49:44.522Z,78.40
2023-03-23T16:51:44.899Z,78.74
2023-03-23T16:53:45.207Z,77.93
2023-03-23T16:55:45.717Z,77.42
2023-03-23T16:57:46.166Z,77.32
2023-03-23T16:59:46.420Z,77.01
2023-03-23T17:01:46.799Z,77.12
2023-03-23T17:03:47.186Z,77.12
2023-03-23T17:05:47.675Z,77.83
2023-03-23T17:07:48.054Z,77.76
2023-03-23T17:09:48.443Z,77.97
2023-03-23T17:11:48.869Z,78.06
2023-03-23T17:13:49.342Z,78.37
2023-03-23T17:15:49.918Z,78.06
2023-03-23T17:17:50.405Z,78.37
2023-03-23T17:19:50.979Z,78.57
2023-03-23T17:21:51.915Z,79.02
2023-03-23T17:23:52.211Z,78.81
2023-03-23T17:25:52.609Z,79.12
2023-03-23T17:27:52.863Z,79.32
2023-03-23T17:29:53.195Z,79.12
2023-03-23T17:31:53.617Z,79.56
2023-03-23T17:33:53.967Z,79.66
2023-03-23T17:35:54.401Z,79.25
2023-03-23T17:37:54.683Z,79.86
2023-03-23T17:39:55.002Z,79.97
2023-03-23T17:41:55.261Z,79.16
2023-03-23T17:43:55.608Z,78.75
2023-03-23T17:45:55.895Z,79.05
2023-03-23T17:47:56.294Z,79.25
2023-03-23T17:49:58.621Z,78.85
2023-03-23T17:51:58.907Z,80.07
2023-03-23T17:53:59.176Z,79.80
2023-03-23T17:55:59.473Z,79.46
2023-03-23T17:57:59.784Z,79.09
2023-03-23T18:00:00.196Z,78.99
2023-03-23T18:02:00.471Z,79.66
2023-03-23T18:04:00.788Z,80.51
2023-03-23T18:06:01.160Z,80.51
2023-03-23T18:08:01.450Z,80.41
2023-03-23T18:10:01.743Z,80.31
2023-03-23T18:12:02.529Z,80.41
2023-03-23T18:14:02.831Z,80.41
2023-03-23T18:16:03.150Z,80.11
2023-03-23T18:18:03.581Z,79.50
2023-03-23T18:20:03.932Z,80.00
2023-03-23T18:22:04.236Z,80.21
2023-03-23T18:24:04.565Z,80.31
2023-03-23T18:26:04.856Z,80.62
2023-03-23T18:28:05.761Z,81.77
2023-03-23T18:30:07.386Z,81.57
2023-03-23T18:32:07.746Z,82.48
2023-03-23T18:34:08.092Z,82.59
2023-03-23T18:36:08.469Z,82.38
2023-03-23T18:38:08.948Z,83.20
2023-03-23T18:40:09.491Z,82.93
2023-03-23T18:42:09.839Z,83.23
2023-03-23T18:44:10.132Z,83.34
2023-03-23T18:46:10.540Z,83.54
2023-03-23T18:48:10.843Z,84.05
2023-03-23T18:50:11.142Z,83.54
2023-03-23T18:52:11.535Z,83.13
2023-03-23T18:54:11.889Z,83.03
2023-03-23T18:56:12.992Z,82.62
2023-03-23T18:58:13.252Z,82.12
2023-03-23T19:00:13.644Z,81.81
2023-03-23T19:02:13.998Z,81.30
2023-03-23T19:04:14.356Z,81.77
2023-03-23T19:06:14.948Z,81.37
2023-03-23T19:08:15.365Z,80.85
2023-03-23T19:10:15.696Z,80.96
2023-03-23T19:12:16.135Z,80.65
2023-03-23T19:14:16.409Z,80.85
2023-03-23T19:16:17.472Z,82.18
2023-03-23T19:18:17.746Z,82.18
2023-03-23T19:20:37.260Z,82.38
2023-03-23T19:22:23.342Z,82.68
2023-03-23T19:24:23.711Z,82.52
2023-03-23T19:26:24.008Z,82.73
2023-03-23T19:29:05.600Z,82.82
2023-03-23T19:30:29.496Z,82.82
2023-03-23T19:32:29.933Z,82.73
2023-03-23T19:34:30.210Z,82.42
2023-03-23T19:36:30.514Z,82.21
2023-03-23T19:38:30.836Z,82.12
2023-03-23T19:40:49.766Z,82.01
2023-03-23T19:42:36.315Z,81.71
2023-03-23T19:44:36.661Z,81.91
2023-03-23T19:46:36.963Z,81.46
2023-03-23T19:48:39.121Z,81.57
2023-03-23T19:50:40.160Z,81.46
2023-03-23T19:52:42.170Z,81.46
2023-03-23T19:54:42.570Z,81.57
2023-03-23T19:56:43.212Z,81.81
2023-03-23T19:58:47.055Z,81.81
2023-03-23T20:00:48.535Z,81.71
2023-03-23T20:02:49.126Z,81.81
2023-03-23T20:04:49.916Z,81.46
2023-03-23T20:06:51.467Z,81.67
2023-03-23T20:08:51.902Z,81.37
2023-03-23T20:10:52.575Z,81.26
2023-03-23T20:12:52.893Z,81.16
2023-03-23T20:14:53.329Z,81.06
2023-03-23T20:16:53.907Z,80.85
2023-03-23T20:18:54.443Z,80.96
2023-03-23T20:20:55.571Z,80.76
2023-03-23T20:22:57.893Z,80.55
2023-03-23T20:25:00.469Z,80.65
2023-03-23T20:27:00.900Z,80.55
2023-03-23T20:29:01.304Z,80.31
2023-03-23T20:31:19.987Z,80.51
2023-03-23T20:33:06.915Z,80.21
2023-03-23T20:35:07.213Z,79.90
2023-03-23T20:37:07.573Z,79.90
2023-03-23T20:39:07.828Z,79.70
2023-03-23T20:41:08.228Z,79.70
2023-03-23T20:43:09.694Z,79.70
2023-03-23T20:45:11.092Z,79.39
2023-03-23T20:47:11.423Z,79.29
2023-03-23T20:49:11.955Z,79.29
2023-03-23T20:51:12.292Z,78.99
2023-03-23T20:53:12.699Z,79.09
2023-03-23T20:55:13.067Z,78.89
2023-03-23T20:57:13.472Z,78.68
2023-03-23T20:59:13.816Z,78.89
2023-03-23T21:01:14.228Z,78.68
2023-03-23T21:03:14.698Z,78.58
2023-03-23T21:05:15.038Z,78.17
2023-03-23T21:07:15.274Z,78.28
2023-03-23T21:09:15.582Z,78.17
2023-03-23T21:11:15.941Z,78.38
2023-03-23T21:13:16.237Z,78.08
2023-03-23T21:15:16.548Z,78.08
2023-03-23T21:17:16.828Z,78.28
2023-03-23T21:19:17.393Z,77.97
2023-03-23T21:21:17.645Z,77.87
2023-03-23T21:23:18.036Z,77.67
2023-03-23T21:25:18.483Z,77.87
2023-03-23T21:27:18.840Z,77.67
2023-03-23T21:29:19.098Z,77.56
2023-03-23T21:31:19.394Z,77.47
2023-03-23T21:33:19.685Z,77.47
2023-03-23T21:35:19.995Z,77.47
2023-03-23T21:37:20.262Z,77.56
2023-03-23T21:39:21.215Z,77.36
2023-03-23T21:41:21.600Z,77.47
2023-03-23T21:43:21.860Z,77.56
2023-03-23T21:45:22.188Z,77.26
2023-03-23T21:47:22.487Z,77.16
2023-03-23T21:49:22.828Z,77.26
2023-03-23T21:51:23.130Z,77.16
2023-03-23T21:53:23.400Z,77.16
2023-03-23T21:55:23.805Z,77.16
2023-03-23T21:57:24.090Z,77.26
2023-03-23T21:59:24.441Z,77.26
2023-03-23T22:01:24.750Z,77.26
2023-03-23T22:03:25.052Z,77.36
2023-03-23T22:05:25.351Z,77.26
2023-03-23T22:07:25.701Z,77.36
2023-03-23T22:09:26.130Z,77.26
2023-03-23T22:11:26.476Z,77.16
2023-03-23T22:13:26.724Z,77.16
2023-03-23T22:15:27.016Z,77.26
2023-03-23T22:17:27.502Z,77.26
2023-03-23T22:19:27.871Z,77.47
2023-03-23T22:21:28.186Z,80.31
2023-03-23T22:23:28.475Z,81.23
2023-03-23T22:25:28.829Z,80.82
2023-03-23T22:27:29.121Z,80.76
2023-03-23T22:29:29.386Z,81.26
2023-03-23T22:31:29.779Z,81.16
2023-03-23T22:33:30.072Z,82.18
2023-03-23T22:35:30.392Z,82.62
2023-03-23T22:37:30.667Z,83.64
2023-03-23T22:39:30.963Z,82.82
2023-03-23T22:41:31.283Z,82.93
2023-03-23T22:43:31.591Z,82.12
2023-03-23T22:45:31.869Z,82.42
2023-03-23T22:47:32.199Z,82.52
2023-03-23T22:49:32.476Z,82.62
2023-03-23T22:51:32.783Z,82.21
2023-03-23T22:53:33.085Z,82.42
2023-03-23T22:55:33.356Z,82.42
2023-03-23T22:57:33.744Z,81.71
2023-03-23T22:59:34.019Z,82.12
2023-03-23T23:01:34.336Z,82.73
2023-03-23T23:03:34.724Z,82.93
2023-03-23T23:05:35.186Z,82.21
2023-03-23T23:07:35.444Z,81.91
2023-03-23T23:09:35.725Z,81.60
2023-03-23T23:11:36.030Z,81.20
2023-03-23T23:13:36.365Z,81.20
2023-03-23T23:15:36.632Z,81.30
2023-03-23T23:17:36.979Z,81.91
2023-03-23T23:19:37.283Z,81.51
2023-03-23T23:21:37.597Z,81.30
2023-03-23T23:23:37.905Z,81.30
2023-03-23T23:25:38.184Z,81.51
2023-03-23T23:27:38.462Z,81.60
2023-03-23T23:29:38.791Z,81.40
2023-03-23T23:31:39.145Z,81.51
2023-03-23T23:33:39.457Z,81.30
2023-03-23T23:35:39.759Z,80.79
2023-03-23T23:37:40.071Z,80.99
2023-03-23T23:39:40.394Z,81.10
2023-03-23T23:41:40.665Z,80.90
2023-03-23T23:43:40.977Z,82.12
2023-03-23T23:45:41.375Z,83.44
2023-03-23T23:47:41.709Z,83.95
2023-03-23T23:49:42.024Z,84.29
2023-03-23T23:51:42.386Z,85.61
2023-03-23T23:53:42.648Z,86.02
2023-03-23T23:55:42.950Z,86.43
2023-03-23T23:57:43.265Z,85.86
2023-03-23T23:59:43.588Z,86.27
